createdAt,value
2018-11-21T00:01:26.109Z,9.97
2018-11-21T00:04:13.897Z,11.83
2018-11-21T00:06:42.559Z,9.43
2018-11-21T00:09:30.405Z,11.27
2018-11-21T00:11:59.116Z,11.83
2018-11-21T00:14:47.120Z,13.60
2018-11-21T00:17:16.035Z,11.60
2018-11-21T00:20:03.858Z,9.07
2018-11-21T00:22:51.687Z,9.40
2018-11-21T00:25:20.597Z,15.70
2018-11-21T00:28:08.610Z,11.90
2018-11-21T00:30:56.042Z,11.03
2018-11-21T00:33:44.483Z,11.17
2018-11-21T00:41:55.632Z,13.30
2018-11-21T00:44:24.278Z,12.83
2018-11-21T00:46:53.191Z,12.30
2018-11-21T00:49:41.023Z,13.90
2018-11-21T00:52:28.800Z,12.17
2018-11-21T00:55:16.582Z,12.40
2018-11-21T00:58:04.367Z,12.47
2018-11-21T01:00:33.034Z,12.67
2018-11-21T01:03:01.923Z,13.40
2018-11-21T01:08:26.384Z,12.37
2018-11-21T01:10:55.300Z,12.90
2018-11-21T01:13:24.292Z,11.93
2018-11-21T01:16:12.106Z,12.57
2018-11-21T01:18:41.291Z,14.87
2018-11-21T01:24:20.164Z,13.17
2018-11-21T01:26:49.375Z,13.57
2018-11-21T01:29:37.186Z,14.57
2018-11-21T01:32:06.053Z,13.63
2018-11-21T01:34:34.981Z,15.23
2018-11-21T01:37:22.815Z,13.90
2018-11-21T01:40:10.589Z,10.80
2018-11-21T01:42:39.293Z,13.87
2018-11-21T01:45:27.006Z,13.47
2018-11-21T01:47:55.691Z,14.30
2018-11-21T01:50:25.579Z,16.20
2018-11-21T01:55:49.363Z,11.77
2018-11-21T01:58:37.122Z,15.37
2018-11-21T02:01:05.849Z,13.60
2018-11-21T02:03:34.475Z,11.87
2018-11-21T02:06:22.266Z,15.93
2018-11-21T02:09:10.068Z,15.00
2018-11-21T02:11:57.855Z,12.90
2018-11-21T02:14:45.635Z,16.00
2018-11-21T02:17:33.413Z,16.73
2018-11-21T02:20:21.597Z,18.50
2018-11-21T02:23:10.006Z,12.47
2018-11-21T02:25:58.278Z,18.27
2018-11-21T02:29:05.551Z,14.90
2018-11-21T02:31:53.748Z,13.70
2018-11-21T02:37:16.837Z,13.00
2018-11-21T02:40:04.650Z,14.47
2018-11-21T02:42:52.402Z,13.70
2018-11-21T02:45:21.127Z,14.83
2018-11-21T02:48:08.899Z,12.33
2018-11-21T02:50:37.643Z,14.87
2018-11-21T02:53:06.426Z,14.37
2018-11-21T02:55:37.107Z,14.87
2018-11-21T02:58:24.875Z,10.97
2018-11-21T03:00:53.517Z,14.83
2018-11-21T03:03:22.387Z,19.00
2018-11-21T03:05:51.264Z,15.00
2018-11-21T03:08:20.166Z,10.97
2018-11-21T03:11:09.027Z,16.53
2018-11-21T03:13:59.044Z,14.90
2018-11-21T03:16:47.782Z,13.20
2018-11-21T03:22:12.064Z,14.90
2018-11-21T03:24:59.818Z,16.67
2018-11-21T03:27:28.490Z,13.83
2018-11-21T03:29:57.177Z,16.27
2018-11-21T03:32:26.383Z,14.43
2018-11-21T03:35:34.443Z,16.60
2018-11-21T03:38:24.464Z,17.97
2018-11-21T03:41:13.998Z,16.67
2018-11-21T03:43:42.815Z,18.57
2018-11-21T03:46:11.694Z,15.63
2018-11-21T03:48:59.471Z,19.77
2018-11-21T03:51:28.329Z,16.70
2018-11-21T03:54:16.082Z,19.40
2018-11-21T03:57:03.973Z,18.13
2018-11-21T03:59:32.831Z,16.93
2018-11-21T04:02:01.773Z,18.60
2018-11-21T04:04:49.540Z,20.57
2018-11-21T04:07:39.175Z,19.57
2018-11-21T04:10:30.238Z,21.87
2018-11-21T04:13:18.652Z,22.67
2018-11-21T04:16:07.422Z,20.00
2018-11-21T04:18:36.108Z,19.53
2018-11-21T04:21:05.499Z,19.93
2018-11-21T04:23:36.506Z,22.43
2018-11-21T04:26:05.522Z,24.40
2018-11-21T04:28:35.482Z,23.27
2018-11-21T04:31:43.489Z,21.90
2018-11-21T04:34:15.092Z,22.10
2018-11-21T04:36:44.532Z,19.13
2018-11-21T04:39:32.305Z,17.50
2018-11-21T04:42:01.172Z,20.97
2018-11-21T04:44:30.109Z,23.40
2018-11-21T04:47:17.892Z,23.63
2018-11-21T04:50:05.752Z,23.00
2018-11-21T04:52:34.664Z,20.23
2018-11-21T04:55:22.480Z,19.80
2018-11-21T05:03:19.812Z,31.17
2018-11-21T05:05:48.463Z,23.50
2018-11-21T05:08:36.287Z,22.70
2018-11-21T05:11:24.081Z,23.27
2018-11-21T05:14:11.859Z,28.07
2018-11-21T05:19:15.396Z,26.33
2018-11-21T05:22:03.203Z,25.87
2018-11-21T05:24:50.900Z,20.13
2018-11-21T05:27:38.676Z,33.87
2018-11-21T05:30:26.620Z,26.17
2018-11-21T05:33:14.443Z,24.63
2018-11-21T05:36:02.278Z,28.17
2018-11-21T05:38:30.968Z,28.13
2018-11-21T05:40:59.625Z,30.53
2018-11-21T05:43:28.544Z,34.17
2018-11-21T05:49:06.005Z,27.23
2018-11-21T05:51:41.123Z,30.17
2018-11-21T05:54:10.022Z,30.43
2018-11-21T05:57:00.756Z,29.50
2018-11-21T05:59:29.857Z,23.50
2018-11-21T06:02:17.661Z,25.83
2018-11-21T06:04:46.546Z,28.77
2018-11-21T06:07:15.377Z,24.77
2018-11-21T06:09:45.996Z,29.50
2018-11-21T06:12:36.157Z,21.67
2018-11-21T06:18:16.251Z,22.20
2018-11-21T06:23:54.613Z,26.67
2018-11-21T06:26:23.502Z,25.77
2018-11-21T06:29:11.299Z,26.70
2018-11-21T06:31:39.977Z,27.73
2018-11-21T06:34:08.788Z,23.67
2018-11-21T06:39:29.547Z,23.13
2018-11-21T06:42:17.370Z,27.13
2018-11-21T06:44:46.231Z,25.53
2018-11-21T06:47:34.040Z,24.50
2018-11-21T06:50:02.904Z,28.17
2018-11-21T06:55:45.429Z,24.53
2018-11-21T06:58:14.073Z,27.37
2018-11-21T07:01:01.870Z,24.40
2018-11-21T07:03:52.222Z,24.90
2018-11-21T07:06:41.743Z,28.53
2018-11-21T07:09:11.462Z,29.80
2018-11-21T07:11:40.339Z,27.93
2018-11-21T07:14:28.193Z,26.10
2018-11-21T07:16:56.901Z,26.30
2018-11-21T07:19:25.591Z,20.73
2018-11-21T07:21:55.901Z,23.77
2018-11-21T07:24:28.828Z,20.77
2018-11-21T07:27:17.032Z,26.17
2018-11-21T07:29:45.870Z,23.23
2018-11-21T07:32:33.731Z,23.40
2018-11-21T07:37:55.903Z,21.67
2018-11-21T07:40:43.666Z,24.07
2018-11-21T07:43:31.493Z,23.70
2018-11-21T07:46:03.263Z,21.73
2018-11-21T07:51:46.450Z,21.23
2018-11-21T07:54:34.282Z,21.63
2018-11-21T07:58:00.470Z,20.97
2018-11-21T08:01:06.637Z,21.47
2018-11-21T08:04:04.685Z,19.17
2018-11-21T08:06:53.272Z,21.63
2018-11-21T08:09:41.871Z,25.33
2018-11-21T08:12:32.217Z,22.20
2018-11-21T08:15:20.908Z,17.87
2018-11-21T08:21:05.821Z,20.37
2018-11-21T08:23:55.625Z,22.50
2018-11-21T08:26:42.557Z,20.60
2018-11-21T08:29:32.326Z,21.23
2018-11-21T08:32:21.106Z,20.13
2018-11-21T08:35:09.440Z,20.00
2018-11-21T08:37:57.418Z,19.67
2018-11-21T08:40:45.239Z,16.53
2018-11-21T08:43:14.137Z,19.53
2018-11-21T08:45:42.854Z,19.27
2018-11-21T08:48:30.639Z,24.73
2018-11-21T08:50:59.317Z,22.07
2018-11-21T08:53:28.238Z,21.80
2018-11-21T08:56:16.048Z,23.53
2018-11-21T08:58:44.753Z,21.87
2018-11-21T09:01:33.068Z,22.23
2018-11-21T09:04:22.219Z,18.77
2018-11-21T09:07:11.731Z,20.27
2018-11-21T09:09:40.751Z,23.63
2018-11-21T09:12:09.599Z,23.63
2018-11-21T09:14:38.485Z,24.93
2018-11-21T09:17:26.338Z,18.80
2018-11-21T09:19:55.042Z,24.87
2018-11-21T09:22:42.845Z,19.00
2018-11-21T09:25:12.460Z,17.33
2018-11-21T09:27:43.101Z,19.40
2018-11-21T09:33:20.882Z,20.63
2018-11-21T09:35:49.890Z,15.87
2018-11-21T09:38:18.575Z,19.37
2018-11-21T09:41:06.378Z,23.37
2018-11-21T09:43:54.151Z,19.87
2018-11-21T09:46:22.858Z,21.53
2018-11-21T09:49:10.669Z,22.73
2018-11-21T09:51:58.497Z,24.97
2018-11-21T09:54:27.167Z,23.77
2018-11-21T09:57:15.068Z,20.13
2018-11-21T09:59:43.722Z,17.30
2018-11-21T10:02:51.018Z,23.25
2018-11-21T10:05:22.574Z,23.17
2018-11-21T10:08:15.393Z,23.37
2018-11-21T10:13:37.453Z,17.63
2018-11-21T10:16:07.063Z,24.13
2018-11-21T10:18:54.896Z,20.33
2018-11-21T10:21:42.554Z,20.70
2018-11-21T10:27:01.547Z,27.07
2018-11-21T10:29:30.514Z,25.27
2018-11-21T10:31:59.406Z,23.80
2018-11-21T10:34:47.234Z,22.87
2018-11-21T10:37:15.981Z,23.70
2018-11-21T10:40:03.838Z,25.70
2018-11-21T10:42:32.599Z,23.87
2018-11-21T10:45:01.569Z,19.90
2018-11-21T10:47:49.312Z,23.90
2018-11-21T10:50:37.085Z,21.53
2018-11-21T10:53:24.885Z,26.17
2018-11-21T10:55:53.782Z,18.60
2018-11-21T10:58:41.985Z,21.03
2018-11-21T11:01:58.432Z,15.07
2018-11-21T11:10:53.191Z,19.50
2018-11-21T11:13:41.024Z,16.93
2018-11-21T11:16:48.086Z,24.17
2018-11-21T11:19:35.943Z,26.70
2018-11-21T11:22:24.147Z,19.87
2018-11-21T11:25:03.684Z,23.40
2018-11-21T11:27:51.446Z,22.70
2018-11-21T11:30:39.660Z,23.40
2018-11-21T11:33:46.644Z,23.10
2018-11-21T11:36:34.386Z,27.73
2018-11-21T11:39:22.257Z,27.40
2018-11-21T11:42:11.027Z,26.90
2018-11-21T11:44:58.862Z,24.47
2018-11-21T11:47:46.767Z,25.60
2018-11-21T11:50:35.501Z,25.80
2018-11-21T11:53:23.227Z,27.30
2018-11-21T11:56:11.174Z,28.03
2018-11-21T11:58:59.264Z,26.97
2018-11-21T12:01:46.936Z,20.97
2018-11-21T12:04:34.786Z,28.13
2018-11-21T12:07:23.863Z,30.27
2018-11-21T12:10:11.904Z,23.03
2018-11-21T12:13:19.089Z,26.53
2018-11-21T12:16:27.398Z,28.93
2018-11-21T12:19:16.312Z,32.57
2018-11-21T12:22:04.427Z,28.07
2018-11-21T12:24:52.107Z,29.47
2018-11-21T12:27:39.767Z,22.10
2018-11-21T12:30:28.724Z,28.20
2018-11-21T12:33:16.587Z,25.43
2018-11-21T12:36:04.377Z,24.63
2018-11-21T12:39:11.782Z,24.77
2018-11-21T12:41:59.565Z,25.97
2018-11-21T12:44:47.190Z,22.90
2018-11-21T12:47:35.010Z,24.30
2018-11-21T12:50:42.213Z,28.57
2018-11-21T12:53:29.843Z,26.63
2018-11-21T12:56:17.654Z,27.80
2018-11-21T12:59:05.454Z,29.67
2018-11-21T13:01:41.131Z,27.90
2018-11-21T13:04:30.114Z,27.90
2018-11-21T13:07:37.705Z,24.37
2018-11-21T13:10:45.892Z,24.83
2018-11-21T13:13:53.894Z,28.70
2018-11-21T13:17:01.749Z,21.03
2018-11-21T13:19:50.088Z,22.27
2018-11-21T13:22:37.870Z,22.77
2018-11-21T13:25:25.958Z,19.97
2018-11-21T13:28:13.746Z,28.73
2018-11-21T13:31:01.523Z,26.80
2018-11-21T13:33:49.848Z,23.47
2018-11-21T13:36:37.698Z,23.87
2018-11-21T13:39:30.068Z,22.67
2018-11-21T13:42:19.061Z,24.27
2018-11-21T13:45:07.131Z,24.33
2018-11-21T13:48:14.333Z,23.70
2018-11-21T13:51:01.953Z,24.50
2018-11-21T13:54:09.703Z,23.73
2018-11-21T13:56:59.348Z,22.07
2018-11-21T13:59:28.619Z,20.33
2018-11-21T14:01:57.282Z,24.13
2018-11-21T14:04:26.080Z,20.93
2018-11-21T14:07:13.849Z,25.07
2018-11-21T14:09:42.767Z,24.67
2018-11-21T14:12:30.793Z,25.57
2018-11-21T14:15:19.375Z,24.23
2018-11-21T14:18:07.875Z,26.73
2018-11-21T14:20:36.792Z,27.00
2018-11-21T14:23:24.928Z,21.57
2018-11-21T14:25:53.564Z,24.50
2018-11-21T14:28:22.254Z,20.37
2018-11-21T14:31:10.084Z,26.57
2018-11-21T14:33:58.286Z,27.20
2018-11-21T14:36:45.959Z,21.53
2018-11-21T14:39:15.325Z,25.03
2018-11-21T14:42:08.134Z,21.57
2018-11-21T14:44:51.289Z,21.90
2018-11-21T14:47:19.818Z,20.30
2018-11-21T14:50:20.509Z,20.97
2018-11-21T14:53:09.970Z,25.43
2018-11-21T14:55:57.816Z,25.47
2018-11-21T14:58:26.445Z,24.63
2018-11-21T15:01:14.221Z,22.53
2018-11-21T15:03:42.985Z,20.40
2018-11-21T15:06:30.843Z,20.97
2018-11-21T15:08:59.708Z,20.67
2018-11-21T15:11:47.481Z,25.27
2018-11-21T15:14:16.113Z,20.00
2018-11-21T15:19:19.459Z,19.20
2018-11-21T15:21:48.662Z,19.10
2018-11-21T15:27:26.501Z,20.33
2018-11-21T15:30:00.046Z,15.97
2018-11-21T15:32:24.238Z,25.33
2018-11-21T15:35:12.095Z,23.77
2018-11-21T15:37:42.889Z,19.97
2018-11-21T15:40:31.614Z,20.40
2018-11-21T15:43:00.349Z,29.23
2018-11-21T15:45:29.280Z,25.40
2018-11-21T15:48:18.878Z,31.50
2018-11-21T15:51:08.552Z,22.97
2018-11-21T15:53:37.142Z,24.43
2018-11-21T15:56:24.948Z,19.90
2018-11-21T15:58:53.594Z,23.53
2018-11-21T16:01:22.671Z,23.60
2018-11-21T16:03:52.233Z,26.50
2018-11-21T16:06:20.998Z,25.33
2018-11-21T16:08:49.651Z,26.40
2018-11-21T16:11:18.324Z,22.17
2018-11-21T16:14:06.483Z,20.97
2018-11-21T16:16:55.125Z,20.77
2018-11-21T16:22:19.245Z,23.90
2018-11-21T16:25:07.012Z,26.03
2018-11-21T16:27:35.840Z,27.20
2018-11-21T16:30:25.921Z,23.10
2018-11-21T16:32:54.554Z,26.63
2018-11-21T16:35:42.568Z,21.23
2018-11-21T16:38:11.229Z,23.53
2018-11-21T16:40:59.173Z,22.43
2018-11-21T16:43:28.122Z,22.33
2018-11-21T16:45:57.870Z,23.23
2018-11-21T16:48:45.628Z,24.67
2018-11-21T16:51:33.884Z,20.73
2018-11-21T16:54:02.659Z,20.63
2018-11-21T16:56:50.338Z,18.70
2018-11-21T16:59:18.988Z,18.17
2018-11-21T17:01:47.958Z,22.17
2018-11-21T17:04:16.919Z,24.23
2018-11-21T17:07:04.754Z,22.17
2018-11-21T17:09:54.361Z,22.77
2018-11-21T17:12:22.982Z,22.83
2018-11-21T17:14:51.918Z,22.80
2018-11-21T17:17:39.726Z,25.70
2018-11-21T17:23:17.115Z,21.50
2018-11-21T17:25:46.068Z,21.10
2018-11-21T17:28:54.384Z,26.33
2018-11-21T17:31:43.529Z,18.63
2018-11-21T17:34:32.061Z,23.30
2018-11-21T17:37:00.737Z,22.00
2018-11-21T17:39:30.877Z,23.40
2018-11-21T17:42:20.392Z,30.57
2018-11-21T17:44:50.040Z,18.53
2018-11-21T17:47:18.706Z,23.93
2018-11-21T17:49:47.899Z,18.97
2018-11-21T17:52:16.102Z,22.53
2018-11-21T17:55:03.904Z,26.00
2018-11-21T17:57:32.846Z,24.27
2018-11-21T18:00:01.540Z,22.63
2018-11-21T18:02:49.304Z,25.97
2018-11-21T18:08:27.711Z,20.07
2018-11-21T18:10:56.404Z,20.10
2018-11-21T18:13:25.047Z,25.20
2018-11-21T18:16:13.616Z,20.57
2018-11-21T18:18:43.193Z,19.80
2018-11-21T18:21:31.051Z,23.47
2018-11-21T18:24:18.877Z,22.63
2018-11-21T18:26:47.526Z,21.10
2018-11-21T18:29:16.431Z,22.70
2018-11-21T18:32:05.775Z,23.47
2018-11-21T18:34:36.137Z,19.57
2018-11-21T18:37:05.226Z,21.90
2018-11-21T18:39:34.114Z,25.87
2018-11-21T18:42:03.039Z,24.20
2018-11-21T18:44:50.830Z,28.53
2018-11-21T18:47:19.564Z,21.93
2018-11-21T18:50:11.113Z,20.07
2018-11-21T18:52:37.128Z,21.03
2018-11-21T18:55:09.926Z,16.10
2018-11-21T18:58:00.769Z,24.07
2018-11-21T19:00:32.125Z,19.63
2018-11-21T19:03:01.025Z,17.53
2018-11-21T19:05:29.795Z,21.90
2018-11-21T19:08:17.649Z,22.37
2018-11-21T19:11:05.871Z,23.90
2018-11-21T19:16:41.287Z,29.03
2018-11-21T19:19:29.275Z,30.97
2018-11-21T19:21:57.968Z,24.30
2018-11-21T19:24:26.842Z,25.97
2018-11-21T19:26:55.770Z,20.87
2018-11-21T19:29:24.677Z,22.67
2018-11-21T19:31:53.513Z,27.07
2018-11-21T19:34:22.233Z,28.90
2018-11-21T19:36:51.025Z,23.93
2018-11-21T19:39:38.793Z,23.60
2018-11-21T19:42:07.526Z,33.00
2018-11-21T19:44:55.380Z,25.03
2018-11-21T19:47:24.053Z,22.67
2018-11-21T19:50:11.891Z,24.20
2018-11-21T19:52:59.727Z,29.90
2018-11-21T19:55:47.517Z,28.23
2018-11-21T19:58:16.209Z,32.17
2018-11-21T20:01:04.059Z,26.80
2018-11-21T20:03:32.784Z,24.43
2018-11-21T20:06:01.529Z,30.47
2018-11-21T20:08:30.311Z,32.33
2018-11-21T20:10:59.238Z,25.00
2018-11-21T20:13:47.068Z,32.60
2018-11-21T20:16:15.967Z,29.23
2018-11-21T20:19:03.737Z,35.33
2018-11-21T20:21:32.439Z,29.87
2018-11-21T20:24:01.440Z,30.03
2018-11-21T20:26:30.397Z,31.13
2018-11-21T20:28:59.536Z,27.37
2018-11-21T20:31:28.434Z,34.80
2018-11-21T20:34:16.126Z,45.43
2018-11-21T20:36:44.873Z,28.83
2018-11-21T20:39:32.645Z,32.63
2018-11-21T20:42:20.543Z,30.57
2018-11-21T20:44:49.201Z,31.30
2018-11-21T20:47:18.074Z,31.00
2018-11-21T20:50:05.943Z,32.77
2018-11-21T20:52:34.649Z,30.33
2018-11-21T20:55:29.389Z,27.80
2018-11-21T20:57:58.327Z,28.77
2018-11-21T21:00:46.114Z,33.80
2018-11-21T21:03:14.816Z,30.70
2018-11-21T21:06:02.668Z,29.73
2018-11-21T21:08:31.542Z,28.73
2018-11-21T21:11:00.464Z,33.17
2018-11-21T21:13:48.274Z,28.90
2018-11-21T21:16:16.934Z,34.53
2018-11-21T21:19:04.822Z,32.57
2018-11-21T21:21:33.659Z,32.20
2018-11-21T21:24:21.526Z,29.20
2018-11-21T21:26:50.239Z,32.13
2018-11-21T21:29:38.046Z,28.93
2018-11-21T21:32:07.036Z,35.30
2018-11-21T21:34:54.850Z,34.27
2018-11-21T21:37:23.781Z,26.97
2018-11-21T21:40:11.592Z,31.33
2018-11-21T21:42:40.777Z,28.97
2018-11-21T21:45:11.543Z,29.00
2018-11-21T21:47:41.682Z,29.37
2018-11-21T21:50:10.575Z,35.83
2018-11-21T21:53:07.046Z,34.80
2018-11-21T21:55:55.328Z,34.17
2018-11-21T21:58:24.235Z,31.10
2018-11-21T22:00:53.078Z,30.33
2018-11-21T22:03:22.000Z,27.33
2018-11-21T22:06:11.342Z,31.30
2018-11-21T22:09:00.219Z,28.50
2018-11-21T22:11:28.911Z,34.57
2018-11-21T22:13:57.707Z,32.43
2018-11-21T22:16:27.215Z,30.60
2018-11-21T22:19:15.199Z,33.03
2018-11-21T22:21:44.093Z,30.73
2018-11-21T22:24:33.391Z,30.40
2018-11-21T22:27:03.100Z,28.50
2018-11-21T22:29:31.975Z,27.60
2018-11-21T22:32:02.210Z,28.10
2018-11-21T22:34:34.398Z,28.10
2018-11-21T22:37:22.432Z,28.43
2018-11-21T22:39:51.547Z,24.70
2018-11-21T22:42:20.431Z,24.27
2018-11-21T22:45:08.108Z,31.57
2018-11-21T22:47:36.825Z,31.67
2018-11-21T22:50:08.271Z,34.77
2018-11-21T22:55:57.774Z,26.63
2018-11-21T22:59:06.780Z,25.60
2018-11-21T23:01:37.311Z,25.43
2018-11-21T23:04:06.128Z,31.80
2018-11-21T23:06:35.054Z,29.53
2018-11-21T23:09:22.863Z,23.53
2018-11-21T23:12:10.650Z,32.77
2018-11-21T23:14:39.351Z,26.90
2018-11-21T23:17:27.164Z,36.27
2018-11-21T23:22:34.558Z,27.77
2018-11-21T23:25:03.265Z,27.00
2018-11-21T23:27:50.987Z,28.30
2018-11-21T23:30:20.259Z,25.63
2018-11-21T23:32:49.848Z,26.60
2018-11-21T23:41:35.520Z,25.80
2018-11-21T23:44:05.974Z,28.50
2018-11-21T23:46:34.855Z,31.27
2018-11-21T23:49:03.800Z,24.63
2018-11-21T23:51:51.558Z,22.20
2018-11-21T23:54:20.308Z,22.77
2018-11-21T23:57:16.111Z,27.40
2018-11-21T23:59:36.755Z,23.53
